This is the latest recevied weather packets stored in our database for station/object W5CDN. If no packets are shown the sender has not sent any weather packets the latest 10 day(s).
| Time | Temp. | Humidity | Pressure | Rain* | Wind** | Luminosity | Snow |
|---|---|---|---|---|---|---|---|
| 1787942336 | 36.11° C | 43% | 1015.7 hPa | 0 mm | - | - | - |
| 1787942036 | 36.67° C | 45% | 1015.7 hPa | 0 mm | - | - | - |
| 1787941736 | 37.22° C | 44% | 1015.6 hPa | 0 mm | - | - | - |
| 1787941436 | 37.78° C | 43% | 1015.8 hPa | 0 mm | - | - | - |
| 1787941136 | 37.22° C | 43% | 1015.9 hPa | 0 mm | - | - | - |
| 1787940836 | 35.56° C | 44% | 1016 hPa | 0 mm | - | - | - |
| 1787940536 | 35.56° C | 45% | 1016 hPa | 0 mm | - | - | - |
| 1787940236 | 35.56° C | 45% | 1016.2 hPa | 0 mm | - | - | - |
| 1787939936 | 36.11° C | 44% | 1016.2 hPa | 0 mm | - | - | - |
| 1787939636 | 36.11° C | 44% | 1016.1 hPa | 0 mm | - | - | - |
| 1787939336 | 35° C | 47% | 1016.1 hPa | 0 mm | - | - | - |
| 1787939036 | 35° C | 49% | 1016.1 hPa | 0 mm | - | - | - |
| 1787938736 | 34.44° C | 50% | 1016.7 hPa | 0 mm | - | - | - |
| 1787938436 | 35.56° C | 46% | 1016.6 hPa | 0 mm | - | - | - |
| 1787938136 | 35° C | 50% | 1016.7 hPa | 0 mm | - | - | - |
| 1787937836 | 34.44° C | 51% | 1016.8 hPa | 0 mm | - | - | - |
| 1787937536 | 34.44° C | 52% | 1016.9 hPa | 0 mm | - | - | - |
| 1787937236 | 35° C | 52% | 1016.7 hPa | 0 mm | - | - | - |
| 1787936936 | 34.44° C | 53% | 1016.9 hPa | 0 mm | - | - | - |
| 1787936636 | 34.44° C | 51% | 1016.9 hPa | 0 mm | - | - | - |
| 1787936336 | 34.44° C | 50% | 1017.1 hPa | 0 mm | - | - | - |
| 1787936036 | 33.89° C | 52% | 1017 hPa | 0 mm | - | - | - |
| 1787935736 | 33.89° C | 52% | 1017 hPa | 0 mm | - | - | - |
| 1787935436 | 33.89° C | 52% | 1017 hPa | 0 mm | - | - | - |
| 1787935136 | 33.33° C | 53% | 1017 hPa | 0 mm | - | - | - |
* Rain latest hour (hover to see other rain measurements)
** Current wind speed in m/s (hover to see current wind gust speed)